createdAt,value
2018-05-02T00:02:00.750Z,61.62
2018-05-02T00:04:28.379Z,61.48
2018-05-02T00:06:56.071Z,61.42
2018-05-02T00:09:23.699Z,61.37
2018-05-02T00:11:51.395Z,61.51
2018-05-02T00:14:19.054Z,61.37
2018-05-02T00:16:46.711Z,61.59
2018-05-02T00:19:14.327Z,61.51
2018-05-02T00:21:42.047Z,61.31
2018-05-02T00:24:09.711Z,61.19
2018-05-02T00:26:37.371Z,61.20
2018-05-02T00:29:04.983Z,61.07
2018-05-02T00:31:32.696Z,61.63
2018-05-02T00:34:00.297Z,61.85
2018-05-02T00:36:27.958Z,61.85
2018-05-02T00:38:55.567Z,62.22
2018-05-02T00:41:23.197Z,62.40
2018-05-02T00:43:50.907Z,62.40
2018-05-02T00:46:18.539Z,62.40
2018-05-02T00:48:58.072Z,62.24
2018-05-02T00:51:25.682Z,62.24
2018-05-02T00:53:53.288Z,62.40
2018-05-02T00:56:22.449Z,62.70
2018-05-02T00:58:50.066Z,62.54
2018-05-02T01:01:17.756Z,62.47
2018-05-02T01:03:45.363Z,62.34
2018-05-02T01:06:12.992Z,62.35
2018-05-02T01:08:40.632Z,62.53
2018-05-02T01:11:08.255Z,62.38
2018-05-02T01:13:35.858Z,62.52
2018-05-02T01:16:03.485Z,62.35
2018-05-02T01:18:31.181Z,62.29
2018-05-02T01:20:58.845Z,62.29
2018-05-02T01:23:26.515Z,62.76
2018-05-02T01:25:54.143Z,62.88
2018-05-02T01:28:21.839Z,62.92
2018-05-02T01:30:49.493Z,62.93
2018-05-02T01:33:17.099Z,62.77
2018-05-02T01:35:44.728Z,62.85
2018-05-02T01:38:12.350Z,62.82
2018-05-02T01:40:39.994Z,63.27
2018-05-02T01:43:07.630Z,63.74
2018-05-02T01:45:35.266Z,64.44
2018-05-02T01:48:02.895Z,64.41
2018-05-02T01:50:30.504Z,64.41
2018-05-02T01:52:58.125Z,64.35
2018-05-02T01:55:25.812Z,64.50
2018-05-02T01:57:53.477Z,64.93
2018-05-02T02:00:21.084Z,65.41
2018-05-02T02:02:48.722Z,65.73
2018-05-02T02:05:16.334Z,65.88
2018-05-02T02:07:43.963Z,65.95
2018-05-02T02:10:11.571Z,66.11
2018-05-02T02:12:39.198Z,66.45
2018-05-02T02:15:06.803Z,66.72
2018-05-02T02:17:34.474Z,66.88
2018-05-02T02:20:02.075Z,66.75
2018-05-02T02:22:29.707Z,67.19
2018-05-02T02:24:57.315Z,67.62
2018-05-02T02:27:25.061Z,67.53
2018-05-02T02:29:52.691Z,67.79
2018-05-02T02:32:20.347Z,67.79
2018-05-02T02:34:47.957Z,67.96
2018-05-02T02:37:15.683Z,68.51
2018-05-02T02:39:43.282Z,68.91
2018-05-02T02:42:10.916Z,68.93
2018-05-02T02:44:38.515Z,69.16
2018-05-02T02:47:06.166Z,69.60
2018-05-02T02:49:33.818Z,69.68
2018-05-02T02:52:01.426Z,69.84
2018-05-02T02:54:29.116Z,70.17
2018-05-02T02:56:56.713Z,70.34
2018-05-02T02:59:24.348Z,71.07
2018-05-02T03:01:51.995Z,71.79
2018-05-02T03:04:19.632Z,72.05
2018-05-02T03:06:47.314Z,72.11
2018-05-02T03:09:14.951Z,71.88
2018-05-02T03:11:42.554Z,71.92
2018-05-02T03:14:10.206Z,71.57
2018-05-02T03:16:38.126Z,71.19
2018-05-02T03:19:05.755Z,70.67
2018-05-02T03:21:33.364Z,70.40
2018-05-02T03:24:01.059Z,70.52
2018-05-02T03:26:28.669Z,70.31
2018-05-02T03:28:56.385Z,70.17
2018-05-02T03:31:24.055Z,70.23
2018-05-02T03:33:51.683Z,70.25
2018-05-02T03:36:19.384Z,70.32
2018-05-02T03:38:47.014Z,70.19
2018-05-02T03:41:14.698Z,70.41
2018-05-02T03:43:42.322Z,70.50
2018-05-02T03:46:09.930Z,70.63
2018-05-02T03:48:37.561Z,70.77
2018-05-02T03:51:05.174Z,70.88
2018-05-02T03:53:32.810Z,70.86
2018-05-02T03:56:00.983Z,70.94
2018-05-02T03:58:28.611Z,71.05
2018-05-02T04:01:07.923Z,71.02
2018-05-02T04:03:47.323Z,71.10
2018-05-02T04:06:26.740Z,71.09
2018-05-02T04:08:54.414Z,71.11
2018-05-02T04:11:22.020Z,70.96
2018-05-02T04:13:49.774Z,70.80
2018-05-02T04:16:17.510Z,70.78
2018-05-02T04:18:45.823Z,70.59
2018-05-02T04:21:13.470Z,70.28
2018-05-02T04:23:41.111Z,70.11
2018-05-02T04:26:08.780Z,70.01
2018-05-02T04:28:36.392Z,69.88
2018-05-02T04:31:04.022Z,69.70
2018-05-02T04:33:31.632Z,69.68
2018-05-02T04:35:59.253Z,69.52
2018-05-02T04:38:26.864Z,69.58
2018-05-02T04:40:54.490Z,69.53
2018-05-02T04:43:22.095Z,69.21
2018-05-02T04:45:49.723Z,68.80
2018-05-02T04:48:17.330Z,68.51
2018-05-02T04:50:45.090Z,68.53
2018-05-02T04:53:12.699Z,68.79
2018-05-02T04:55:40.517Z,69.25
2018-05-02T04:58:08.135Z,69.76
2018-05-02T05:00:35.765Z,70.05
2018-05-02T05:03:03.402Z,70.26
2018-05-02T05:05:31.034Z,70.19
2018-05-02T05:07:58.638Z,69.84
2018-05-02T05:10:26.258Z,69.58
2018-05-02T05:12:53.954Z,69.41
2018-05-02T05:15:21.599Z,69.02
2018-05-02T05:17:49.207Z,68.71
2018-05-02T05:20:16.820Z,68.48
2018-05-02T05:22:45.021Z,68.22
2018-05-02T05:25:12.637Z,67.95
2018-05-02T05:27:40.339Z,67.57
2018-05-02T05:30:08.003Z,67.31
2018-05-02T05:32:35.662Z,67.20
2018-05-02T05:35:03.275Z,67.01
2018-05-02T05:37:30.903Z,66.78
2018-05-02T05:39:58.550Z,66.60
2018-05-02T05:42:26.219Z,66.13
2018-05-02T05:44:53.875Z,65.44
2018-05-02T05:47:21.506Z,65.23
2018-05-02T05:49:49.207Z,64.88
2018-05-02T05:52:16.863Z,64.39
2018-05-02T05:54:44.467Z,64.32
2018-05-02T05:57:12.187Z,64.02
2018-05-02T05:59:39.859Z,63.87
2018-05-02T06:02:07.518Z,63.16
2018-05-02T06:04:35.117Z,63.01
2018-05-02T06:07:02.822Z,62.66
2018-05-02T06:09:30.504Z,62.05
2018-05-02T06:11:58.162Z,61.69
2018-05-02T06:14:25.774Z,61.43
2018-05-02T06:16:53.491Z,61.23
2018-05-02T06:19:21.261Z,61.01
2018-05-02T06:21:49.122Z,60.62
2018-05-02T06:24:16.791Z,60.08
2018-05-02T06:26:44.454Z,59.41
2018-05-02T06:29:12.110Z,58.99
2018-05-02T06:31:39.820Z,58.87
2018-05-02T06:34:07.538Z,58.46
2018-05-02T06:36:35.147Z,58.23
2018-05-02T06:39:02.783Z,58.02
2018-05-02T06:41:30.432Z,57.47
2018-05-02T06:43:58.075Z,56.73
2018-05-02T06:46:25.751Z,56.32
2018-05-02T06:48:53.393Z,55.82
2018-05-02T06:51:21.083Z,55.59
2018-05-02T06:53:48.720Z,55.27
2018-05-02T06:56:16.347Z,54.26
2018-05-02T06:58:44.062Z,54.05
2018-05-02T07:01:11.679Z,53.87
2018-05-02T07:03:39.310Z,52.17
2018-05-02T07:06:06.917Z,49.89
2018-05-02T07:08:34.552Z,49.64
2018-05-02T07:11:02.184Z,49.70
2018-05-02T07:13:29.889Z,48.47
2018-05-02T07:15:57.463Z,47.58
2018-05-02T07:18:25.095Z,47.18
2018-05-02T07:20:52.695Z,46.89
2018-05-02T07:23:20.330Z,47.01
2018-05-02T07:25:47.943Z,47.08
2018-05-02T07:28:15.570Z,46.88
2018-05-02T07:30:43.174Z,46.16
2018-05-02T07:33:10.830Z,46.10
2018-05-02T07:35:38.433Z,45.76
2018-05-02T07:38:06.120Z,45.17
2018-05-02T07:40:33.732Z,44.08
2018-05-02T07:43:01.346Z,43.58
2018-05-02T07:45:29.043Z,43.59
2018-05-02T07:47:56.655Z,43.87
2018-05-02T07:50:24.286Z,43.11
2018-05-02T07:52:51.934Z,41.65
2018-05-02T07:55:19.571Z,41.44
2018-05-02T07:57:47.183Z,40.47
2018-05-02T08:00:14.828Z,39.86
2018-05-02T08:02:42.434Z,39.65
2018-05-02T08:05:10.058Z,39.49
2018-05-02T08:07:37.663Z,38.65
2018-05-02T08:10:05.291Z,37.92
2018-05-02T08:12:32.930Z,38.02
2018-05-02T08:15:00.583Z,37.68
2018-05-02T08:17:28.254Z,37.60
2018-05-02T08:19:55.878Z,36.97
2018-05-02T08:22:23.478Z,36.27
2018-05-02T08:24:51.131Z,36.48
2018-05-02T08:27:18.738Z,36.69
2018-05-02T08:29:46.371Z,36.48
2018-05-02T08:32:14.016Z,37.48
2018-05-02T08:34:41.682Z,37.72
2018-05-02T08:37:09.349Z,37.77
2018-05-02T08:39:36.980Z,37.77
2018-05-02T08:42:04.599Z,36.92
2018-05-02T08:44:32.335Z,36.33
2018-05-02T08:47:00.003Z,36.32
2018-05-02T08:49:27.632Z,36.67
2018-05-02T08:51:55.316Z,36.48
2018-05-02T08:54:22.983Z,36.63
2018-05-02T08:56:50.610Z,36.50
2018-05-02T08:59:18.210Z,35.75
2018-05-02T09:01:45.859Z,36.11
2018-05-02T09:04:13.465Z,35.61
2018-05-02T09:06:41.098Z,35.66
2018-05-02T09:09:08.715Z,35.35
2018-05-02T09:11:36.419Z,35.22
2018-05-02T09:14:04.018Z,34.75
2018-05-02T09:16:31.643Z,34.42
2018-05-02T09:19:00.018Z,34.42
2018-05-02T09:21:27.647Z,34.53
2018-05-02T09:23:55.247Z,34.52
2018-05-02T09:26:22.870Z,34.92
2018-05-02T09:28:50.567Z,33.96
2018-05-02T09:31:18.231Z,33.75
2018-05-02T09:33:45.899Z,33.81
2018-05-02T09:36:13.554Z,33.28
2018-05-02T09:38:41.214Z,33.46
2018-05-02T09:41:08.877Z,33.39
2018-05-02T09:43:36.551Z,33.12
2018-05-02T09:46:04.183Z,32.31
2018-05-02T09:48:31.795Z,31.59
2018-05-02T09:50:59.431Z,30.51
2018-05-02T09:53:27.035Z,31.00
2018-05-02T09:55:54.666Z,31.18
2018-05-02T09:58:22.315Z,30.80
2018-05-02T10:00:49.983Z,31.73
2018-05-02T10:03:17.600Z,31.83
2018-05-02T10:05:45.249Z,30.94
2018-05-02T10:08:12.972Z,29.72
2018-05-02T10:10:40.577Z,30.54
2018-05-02T10:13:08.292Z,30.64
2018-05-02T10:15:35.894Z,30.36
2018-05-02T10:18:03.528Z,30.09
2018-05-02T10:20:31.135Z,30.05
2018-05-02T10:22:58.843Z,29.50
2018-05-02T10:25:26.502Z,29.10
2018-05-02T10:27:54.125Z,28.96
2018-05-02T10:30:21.727Z,29.19
2018-05-02T10:32:49.394Z,27.86
2018-05-02T10:35:17.046Z,28.21
2018-05-02T10:37:44.674Z,28.53
2018-05-02T10:40:12.284Z,28.19
2018-05-02T10:42:39.931Z,27.94
2018-05-02T10:45:07.604Z,28.01
2018-05-02T10:47:35.231Z,27.80
2018-05-02T10:50:02.923Z,27.42
2018-05-02T10:52:30.595Z,27.47
2018-05-02T10:54:58.203Z,27.89
2018-05-02T10:57:25.829Z,27.81
2018-05-02T10:59:53.435Z,28.52
2018-05-02T11:02:21.070Z,28.29
2018-05-02T11:04:48.675Z,28.06
2018-05-02T11:07:16.303Z,27.95
2018-05-02T11:09:43.915Z,28.30
2018-05-02T11:12:11.543Z,28.51
2018-05-02T11:14:39.158Z,28.59
2018-05-02T11:17:06.800Z,28.50
2018-05-02T11:19:34.433Z,28.17
2018-05-02T11:22:02.159Z,28.32
2018-05-02T11:24:29.785Z,28.52
2018-05-02T11:26:57.463Z,28.56
2018-05-02T11:29:25.100Z,28.84
2018-05-02T11:31:52.778Z,28.55
2018-05-02T11:34:20.448Z,28.83
2018-05-02T11:36:48.060Z,28.85
2018-05-02T11:39:15.686Z,28.91
2018-05-02T11:41:43.322Z,28.92
2018-05-02T11:44:10.954Z,28.73
2018-05-02T11:46:38.553Z,29.16
2018-05-02T11:49:06.187Z,28.72
2018-05-02T11:51:33.842Z,28.47
2018-05-02T11:54:01.473Z,28.02
2018-05-02T11:56:29.196Z,28.06
2018-05-02T11:58:56.885Z,28.57
2018-05-02T12:01:24.493Z,28.42
2018-05-02T12:03:52.123Z,28.51
2018-05-02T12:06:19.730Z,28.53
2018-05-02T12:08:47.430Z,28.45
2018-05-02T12:11:15.071Z,28.17
2018-05-02T12:13:42.734Z,28.83
2018-05-02T12:16:10.452Z,28.79
2018-05-02T12:18:38.225Z,29.49
2018-05-02T12:21:05.930Z,28.89
2018-05-02T12:23:33.588Z,28.74
2018-05-02T12:26:01.191Z,28.63
2018-05-02T12:28:28.914Z,29.09
2018-05-02T12:30:56.519Z,29.43
2018-05-02T12:33:24.144Z,29.51
2018-05-02T12:35:51.770Z,29.34
2018-05-02T12:38:19.379Z,29.44
2018-05-02T12:40:47.053Z,29.29
2018-05-02T12:43:14.649Z,29.32
2018-05-02T12:45:42.295Z,29.26
2018-05-02T12:48:09.909Z,29.48
2018-05-02T12:50:37.546Z,29.72
2018-05-02T12:53:05.170Z,29.40
2018-05-02T12:55:32.893Z,29.82
2018-05-02T12:58:00.494Z,30.25
2018-05-02T13:00:28.127Z,30.47
2018-05-02T13:02:55.795Z,30.91
2018-05-02T13:05:23.422Z,30.31
2018-05-02T13:07:51.031Z,30.66
2018-05-02T13:10:18.775Z,31.16
2018-05-02T13:12:46.391Z,31.49
2018-05-02T13:15:14.023Z,31.44
2018-05-02T13:17:41.658Z,30.96
2018-05-02T13:20:09.318Z,31.22
2018-05-02T13:22:36.931Z,31.48
2018-05-02T13:25:04.642Z,31.22
2018-05-02T13:27:32.251Z,31.24
2018-05-02T13:30:00.069Z,31.29
2018-05-02T13:32:27.683Z,31.18
2018-05-02T13:34:55.315Z,31.60
2018-05-02T13:37:22.953Z,32.12
2018-05-02T13:39:50.634Z,31.93
2018-05-02T13:42:18.287Z,31.74
2018-05-02T13:44:45.942Z,31.87
2018-05-02T13:47:13.571Z,31.70
2018-05-02T13:49:41.179Z,31.96
2018-05-02T13:52:08.827Z,31.61
2018-05-02T13:54:36.435Z,31.72
2018-05-02T13:57:04.074Z,32.13
2018-05-02T13:59:31.678Z,32.46
2018-05-02T14:01:59.316Z,32.93
2018-05-02T14:04:26.946Z,33.08
2018-05-02T14:06:54.701Z,33.34
2018-05-02T14:09:22.311Z,33.38
2018-05-02T14:11:50.028Z,33.38
2018-05-02T14:14:17.642Z,33.48
2018-05-02T14:16:45.349Z,33.70
2018-05-02T14:19:13.031Z,33.60
2018-05-02T14:21:40.687Z,33.63
2018-05-02T14:24:08.295Z,33.24
2018-05-02T14:26:35.925Z,33.39
2018-05-02T14:29:03.529Z,33.78
2018-05-02T14:31:31.159Z,33.81
2018-05-02T14:33:58.764Z,33.85
2018-05-02T14:36:26.447Z,33.91
2018-05-02T14:38:54.059Z,34.50
2018-05-02T14:41:21.754Z,34.58
2018-05-02T14:43:49.362Z,34.73
2018-05-02T14:46:17.199Z,34.89
2018-05-02T14:48:44.816Z,35.40
2018-05-02T14:51:12.541Z,35.90
2018-05-02T14:53:40.167Z,36.42
2018-05-02T14:56:07.872Z,36.43
2018-05-02T14:58:35.523Z,36.35
2018-05-02T15:01:03.178Z,36.71
2018-05-02T15:03:30.848Z,37.72
2018-05-02T15:05:58.449Z,37.32
2018-05-02T15:08:26.074Z,37.38
2018-05-02T15:10:53.731Z,37.54
2018-05-02T15:13:21.500Z,37.89
2018-05-02T15:15:49.107Z,37.86
2018-05-02T15:18:16.731Z,37.79
2018-05-02T15:20:44.383Z,38.04
2018-05-02T15:23:12.038Z,38.25
2018-05-02T15:25:39.757Z,38.41
2018-05-02T15:28:07.372Z,38.72
2018-05-02T15:30:34.978Z,38.81
2018-05-02T15:33:02.621Z,39.00
2018-05-02T15:35:30.234Z,39.28
2018-05-02T15:37:57.867Z,39.43
2018-05-02T15:40:25.487Z,39.57
2018-05-02T15:42:53.128Z,39.55
2018-05-02T15:45:20.798Z,39.71
2018-05-02T15:47:48.429Z,39.84
2018-05-02T15:50:16.039Z,40.12
2018-05-02T15:52:43.673Z,40.38
2018-05-02T15:55:11.351Z,40.61
2018-05-02T15:57:39.009Z,40.63
2018-05-02T16:00:06.702Z,41.04
2018-05-02T16:02:34.329Z,40.89
2018-05-02T16:05:01.942Z,40.98
2018-05-02T16:07:29.658Z,41.40
2018-05-02T16:09:57.373Z,41.50
2018-05-02T16:12:24.991Z,41.61
2018-05-02T16:14:52.603Z,41.79
2018-05-02T16:17:20.210Z,41.88
2018-05-02T16:19:47.843Z,42.19
2018-05-02T16:22:15.460Z,42.55
2018-05-02T16:24:43.100Z,42.61
2018-05-02T16:27:10.706Z,42.85
2018-05-02T16:29:38.358Z,42.89
2018-05-02T16:32:05.989Z,42.97
2018-05-02T16:34:33.643Z,43.24
2018-05-02T16:37:01.247Z,43.52
2018-05-02T16:39:28.875Z,43.55
2018-05-02T16:41:56.488Z,43.83
2018-05-02T16:44:24.129Z,43.87
2018-05-02T16:46:51.750Z,43.99
2018-05-02T16:49:19.383Z,44.03
2018-05-02T16:51:47.082Z,44.21
2018-05-02T16:54:14.743Z,44.29
2018-05-02T16:56:42.352Z,44.61
2018-05-02T16:59:09.985Z,44.70
2018-05-02T17:01:37.590Z,44.87
2018-05-02T17:04:05.270Z,44.94
2018-05-02T17:06:32.847Z,45.02
2018-05-02T17:09:00.483Z,45.36
2018-05-02T17:11:28.166Z,45.59
2018-05-02T17:13:55.801Z,45.82
2018-05-02T17:16:23.419Z,46.04
2018-05-02T17:18:51.055Z,46.02
2018-05-02T17:21:18.722Z,46.37
2018-05-02T17:23:46.382Z,46.78
2018-05-02T17:26:13.997Z,46.96
2018-05-02T17:28:41.603Z,46.98
2018-05-02T17:31:09.266Z,47.25
2018-05-02T17:33:36.939Z,47.32
2018-05-02T17:36:04.589Z,47.49
2018-05-02T17:38:32.259Z,47.69
2018-05-02T17:40:59.895Z,47.79
2018-05-02T17:43:27.583Z,48.07
2018-05-02T17:45:55.246Z,48.28
2018-05-02T17:48:22.902Z,48.50
2018-05-02T17:50:50.567Z,48.73
2018-05-02T17:53:18.179Z,49.02
2018-05-02T17:55:45.894Z,49.23
2018-05-02T17:58:13.506Z,49.40
2018-05-02T18:00:41.143Z,49.71
2018-05-02T18:03:08.774Z,49.91
2018-05-02T18:05:36.487Z,50.06
2018-05-02T18:08:04.034Z,50.24
2018-05-02T18:10:31.690Z,50.41
2018-05-02T18:12:59.301Z,50.56
2018-05-02T18:15:26.943Z,50.81
2018-05-02T18:17:54.551Z,50.92
2018-05-02T18:20:22.188Z,51.20
2018-05-02T18:22:49.815Z,51.17
2018-05-02T18:25:17.454Z,51.13
2018-05-02T18:27:45.058Z,51.13
2018-05-02T18:30:12.758Z,51.13
2018-05-02T18:32:40.416Z,50.69
2018-05-02T18:35:08.050Z,50.67
2018-05-02T18:37:35.745Z,50.78
2018-05-02T18:40:03.416Z,50.84
2018-05-02T18:42:31.051Z,50.96
2018-05-02T18:44:58.968Z,50.93
2018-05-02T18:47:26.602Z,51.08
2018-05-02T18:49:54.258Z,51.09
2018-05-02T18:52:21.927Z,51.05
2018-05-02T18:54:49.534Z,50.87
2018-05-02T18:57:17.170Z,50.88
2018-05-02T18:59:44.787Z,50.99
2018-05-02T19:02:12.423Z,50.77
2018-05-02T19:04:40.138Z,50.75
2018-05-02T19:07:07.765Z,50.65
2018-05-02T19:09:35.463Z,50.77
2018-05-02T19:12:03.138Z,50.84
2018-05-02T19:14:30.791Z,51.07
2018-05-02T19:16:58.422Z,51.16
2018-05-02T19:19:31.746Z,51.24
2018-05-02T19:21:59.382Z,51.40
2018-05-02T19:24:32.651Z,51.59
2018-05-02T19:27:00.288Z,51.98
2018-05-02T19:29:27.957Z,52.12
2018-05-02T19:32:01.150Z,52.29
2018-05-02T19:34:28.769Z,52.51
2018-05-02T19:36:56.439Z,52.73
2018-05-02T19:39:24.046Z,52.72
2018-05-02T19:41:57.303Z,52.65
2018-05-02T19:44:25.033Z,52.99
2018-05-02T19:46:52.727Z,52.96
2018-05-02T19:49:20.393Z,53.07
2018-05-02T19:51:53.661Z,53.29
2018-05-02T19:54:21.279Z,53.69
2018-05-02T19:56:49.031Z,53.88
2018-05-02T19:59:16.642Z,54.06
2018-05-02T20:01:49.938Z,54.27
2018-05-02T20:04:17.725Z,54.25
2018-05-02T20:06:45.338Z,54.31
2018-05-02T20:09:18.566Z,54.48
2018-05-02T20:11:51.868Z,54.40
2018-05-02T20:14:19.510Z,54.78
2018-05-02T20:16:47.126Z,54.65
2018-05-02T20:19:14.862Z,54.64
2018-05-02T20:21:42.539Z,54.96
2018-05-02T20:24:10.166Z,55.04
2018-05-02T20:26:37.782Z,54.97
2018-05-02T20:29:05.418Z,54.82
2018-05-02T20:31:33.028Z,54.62
2018-05-02T20:34:00.659Z,54.46
2018-05-02T20:36:28.309Z,54.44
2018-05-02T20:38:55.962Z,54.61
2018-05-02T20:41:23.620Z,54.69
2018-05-02T20:43:51.255Z,54.69
2018-05-02T20:46:18.879Z,54.90
2018-05-02T20:48:46.515Z,54.90
2018-05-02T20:51:14.125Z,54.94
2018-05-02T20:53:41.771Z,55.07
2018-05-02T20:56:09.397Z,55.16
2018-05-02T20:58:37.035Z,55.42
2018-05-02T21:01:04.650Z,55.52
2018-05-02T21:03:32.278Z,55.56
2018-05-02T21:06:00.043Z,55.65
2018-05-02T21:08:27.710Z,55.91
2018-05-02T21:10:55.342Z,56.25
2018-05-02T21:13:23.039Z,56.44
2018-05-02T21:15:50.666Z,56.42
2018-05-02T21:18:18.270Z,56.40
2018-05-02T21:20:46.027Z,56.28
2018-05-02T21:23:13.682Z,56.66
2018-05-02T21:25:41.346Z,56.85
2018-05-02T21:28:09.015Z,57.04
2018-05-02T21:30:36.679Z,57.28
2018-05-02T21:33:04.282Z,57.77
2018-05-02T21:35:31.911Z,58.25
2018-05-02T21:37:59.563Z,57.89
2018-05-02T21:40:27.204Z,57.70
2018-05-02T21:42:54.814Z,57.62
2018-05-02T21:45:22.452Z,57.48
2018-05-02T21:47:50.117Z,57.51
2018-05-02T21:50:17.723Z,57.77
2018-05-02T21:52:45.335Z,57.95
2018-05-02T21:55:12.973Z,58.18
2018-05-02T21:57:40.589Z,58.26
2018-05-02T22:00:08.215Z,58.38
2018-05-02T22:02:35.878Z,58.59
2018-05-02T22:05:03.520Z,58.87
2018-05-02T22:07:31.129Z,59.13
2018-05-02T22:09:58.870Z,59.30
2018-05-02T22:12:26.481Z,59.60
2018-05-02T22:14:54.118Z,59.81
2018-05-02T22:17:21.746Z,60.00
2018-05-02T22:19:49.414Z,60.12
2018-05-02T22:22:17.075Z,60.27
2018-05-02T22:24:44.682Z,60.48
2018-05-02T22:27:12.313Z,60.69
2018-05-02T22:29:39.927Z,60.63
2018-05-02T22:32:07.627Z,60.64
2018-05-02T22:34:35.234Z,60.78
2018-05-02T22:37:02.868Z,61.17
2018-05-02T22:39:30.478Z,61.37
2018-05-02T22:41:58.179Z,61.64
2018-05-02T22:44:25.793Z,61.99
2018-05-02T22:46:53.424Z,62.35
2018-05-02T22:49:21.063Z,62.40
2018-05-02T22:51:48.703Z,62.52
2018-05-02T22:54:16.388Z,62.66
2018-05-02T22:56:44.023Z,62.74
2018-05-02T22:59:11.715Z,62.88
2018-05-02T23:01:39.355Z,63.02
2018-05-02T23:04:06.971Z,63.19
2018-05-02T23:06:34.608Z,63.39
2018-05-02T23:09:02.259Z,63.40
2018-05-02T23:11:29.915Z,63.42
2018-05-02T23:13:57.531Z,63.61
2018-05-02T23:16:25.167Z,63.87
2018-05-02T23:18:52.779Z,64.17
2018-05-02T23:21:20.407Z,64.50
2018-05-02T23:23:48.020Z,64.84
2018-05-02T23:26:15.684Z,65.25
2018-05-02T23:28:43.352Z,65.51
2018-05-02T23:31:10.999Z,65.69
2018-05-02T23:33:38.614Z,66.01
2018-05-02T23:36:06.252Z,66.17
2018-05-02T23:38:33.904Z,66.30
2018-05-02T23:41:01.568Z,66.38
2018-05-02T23:43:29.202Z,66.52
2018-05-02T23:45:56.890Z,66.63
2018-05-02T23:48:24.555Z,66.81
2018-05-02T23:50:52.214Z,66.95
2018-05-02T23:53:19.879Z,67.01
2018-05-02T23:55:47.543Z,67.12
2018-05-02T23:58:15.175Z,67.13
